createdAt,value
2018-02-19T00:01:20.494Z,71.60
2018-02-19T00:03:46.849Z,72.08
2018-02-19T00:06:13.422Z,72.12
2018-02-19T00:08:39.762Z,71.93
2018-02-19T00:11:06.137Z,71.94
2018-02-19T00:13:32.564Z,71.72
2018-02-19T00:15:58.939Z,71.67
2018-02-19T00:18:25.293Z,71.72
2018-02-19T00:20:51.691Z,71.93
2018-02-19T00:23:18.124Z,71.88
2018-02-19T00:25:44.477Z,71.78
2018-02-19T00:28:10.845Z,72.41
2018-02-19T00:30:37.245Z,72.43
2018-02-19T00:33:03.605Z,71.85
2018-02-19T00:35:29.969Z,71.97
2018-02-19T00:37:56.337Z,72.41
2018-02-19T00:40:22.718Z,72.48
2018-02-19T00:42:49.086Z,71.97
2018-02-19T00:45:15.441Z,71.62
2018-02-19T00:47:41.829Z,71.54
2018-02-19T00:50:08.174Z,71.61
2018-02-19T00:52:34.543Z,72.33
2018-02-19T00:55:00.889Z,71.91
2018-02-19T00:57:27.281Z,71.89
2018-02-19T00:59:53.636Z,71.47
2018-02-19T01:02:19.989Z,71.41
2018-02-19T01:04:46.401Z,71.29
2018-02-19T01:07:12.795Z,71.25
2018-02-19T01:09:39.138Z,71.55
2018-02-19T01:12:05.537Z,72.55
2018-02-19T01:14:31.935Z,72.55
2018-02-19T01:16:58.302Z,72.10
2018-02-19T01:19:24.714Z,72.05
2018-02-19T01:21:51.126Z,72.05
2018-02-19T01:24:17.476Z,71.77
2018-02-19T01:26:43.853Z,71.68
2018-02-19T01:29:10.222Z,71.83
2018-02-19T01:31:36.742Z,72.00
2018-02-19T01:34:03.157Z,71.96
2018-02-19T01:36:29.507Z,71.98
2018-02-19T01:38:55.874Z,71.87
2018-02-19T01:41:22.281Z,72.21
2018-02-19T01:43:48.634Z,72.32
2018-02-19T01:46:14.990Z,72.30
2018-02-19T01:48:41.409Z,72.27
2018-02-19T01:51:07.776Z,72.38
2018-02-19T01:53:34.142Z,72.37
2018-02-19T01:56:00.554Z,72.60
2018-02-19T01:58:26.931Z,72.51
2018-02-19T02:00:53.285Z,73.05
2018-02-19T02:03:19.703Z,73.13
2018-02-19T02:05:46.053Z,72.82
2018-02-19T02:08:12.469Z,72.46
2018-02-19T02:10:38.865Z,72.20
2018-02-19T02:13:05.241Z,72.99
2018-02-19T02:15:31.673Z,73.60
2018-02-19T02:17:58.026Z,73.05
2018-02-19T02:20:24.398Z,73.16
2018-02-19T02:22:50.830Z,72.51
2018-02-19T02:25:17.179Z,72.73
2018-02-19T02:27:43.544Z,72.77
2018-02-19T02:30:09.946Z,73.26
2018-02-19T02:32:36.298Z,72.67
2018-02-19T02:35:02.685Z,73.12
2018-02-19T02:37:29.128Z,73.19
2018-02-19T02:39:55.493Z,72.89
2018-02-19T02:42:21.896Z,73.18
2018-02-19T02:44:48.296Z,72.75
2018-02-19T02:47:14.654Z,72.84
2018-02-19T02:49:41.001Z,73.18
2018-02-19T02:52:07.398Z,72.83
2018-02-19T02:54:33.738Z,72.76
2018-02-19T02:57:00.097Z,73.08
2018-02-19T02:59:26.495Z,73.21
2018-02-19T03:01:52.838Z,73.27
2018-02-19T03:04:19.261Z,73.28
2018-02-19T03:06:45.659Z,73.76
2018-02-19T03:09:12.018Z,73.51
2018-02-19T03:11:38.361Z,73.45
2018-02-19T03:14:04.760Z,73.53
2018-02-19T03:16:31.200Z,73.42
2018-02-19T03:18:57.585Z,73.80
2018-02-19T03:21:24.045Z,73.40
2018-02-19T03:23:50.402Z,73.51
2018-02-19T03:26:16.757Z,73.69
2018-02-19T03:28:43.122Z,73.60
2018-02-19T03:31:09.551Z,73.76
2018-02-19T03:33:36.039Z,74.10
2018-02-19T03:36:02.390Z,74.47
2018-02-19T03:38:28.786Z,74.70
2018-02-19T03:40:55.136Z,74.46
2018-02-19T03:43:21.494Z,74.26
2018-02-19T03:45:47.886Z,73.91
2018-02-19T03:48:14.446Z,73.85
2018-02-19T03:50:40.793Z,74.18
2018-02-19T03:53:07.192Z,73.88
2018-02-19T03:55:33.574Z,73.94
2018-02-19T03:58:00.054Z,73.97
2018-02-19T04:00:26.826Z,74.06
2018-02-19T04:02:53.165Z,74.21
2018-02-19T04:05:19.844Z,73.95
2018-02-19T04:07:46.233Z,73.70
2018-02-19T04:10:12.813Z,73.64
2018-02-19T04:12:39.177Z,73.68
2018-02-19T04:15:05.646Z,73.68
2018-02-19T04:17:32.006Z,73.66
2018-02-19T04:19:58.360Z,73.64
2018-02-19T04:22:24.776Z,73.68
2018-02-19T04:24:51.133Z,73.50
2018-02-19T04:27:17.509Z,73.72
2018-02-19T04:29:44.106Z,73.79
2018-02-19T04:32:10.465Z,73.88
2018-02-19T04:34:36.890Z,73.77
2018-02-19T04:37:03.454Z,73.84
2018-02-19T04:39:29.985Z,74.37
2018-02-19T04:41:56.351Z,74.31
2018-02-19T04:47:23.146Z,74.73
2018-02-19T04:49:49.494Z,74.17
2018-02-19T04:52:15.921Z,74.16
2018-02-19T04:54:42.277Z,74.11
2018-02-19T04:57:08.677Z,74.50
2018-02-19T04:59:35.159Z,74.57
2018-02-19T05:02:01.530Z,74.60
2018-02-19T05:04:27.938Z,74.50
2018-02-19T05:06:54.451Z,74.39
2018-02-19T05:09:20.818Z,75.33
2018-02-19T05:11:47.205Z,74.82
2018-02-19T05:14:13.624Z,75.39
2018-02-19T05:16:40.001Z,75.96
2018-02-19T05:19:06.349Z,75.34
2018-02-19T05:21:32.740Z,74.67
2018-02-19T05:23:59.094Z,74.83
2018-02-19T05:26:25.477Z,74.65
2018-02-19T05:28:51.909Z,74.67
2018-02-19T05:31:18.254Z,75.01
2018-02-19T05:33:44.618Z,75.22
2018-02-19T05:36:11.017Z,75.08
2018-02-19T05:38:37.375Z,75.16
2018-02-19T05:41:03.773Z,74.82
2018-02-19T05:43:30.281Z,74.96
2018-02-19T05:45:56.625Z,74.94
2018-02-19T05:48:22.985Z,74.53
2018-02-19T05:50:49.409Z,74.45
2018-02-19T05:53:15.902Z,75.33
2018-02-19T05:55:42.253Z,75.62
2018-02-19T05:58:08.677Z,74.87
2018-02-19T06:00:35.154Z,74.60
2018-02-19T06:03:01.545Z,74.29
2018-02-19T06:05:28.052Z,74.50
2018-02-19T06:07:54.473Z,74.77
2018-02-19T06:10:20.830Z,75.32
2018-02-19T06:12:47.241Z,75.20
2018-02-19T06:15:13.962Z,75.26
2018-02-19T06:17:40.336Z,75.05
2018-02-19T06:20:06.745Z,74.66
2018-02-19T06:22:33.177Z,74.88
2018-02-19T06:24:59.862Z,74.65
2018-02-19T06:27:26.289Z,74.16
2018-02-19T06:29:52.709Z,74.06
2018-02-19T06:32:19.201Z,73.88
2018-02-19T06:34:45.625Z,74.02
2018-02-19T06:37:12.337Z,74.05
2018-02-19T06:39:38.832Z,74.24
2018-02-19T06:42:05.257Z,74.54
2018-02-19T06:44:31.662Z,74.68
2018-02-19T06:46:58.025Z,75.05
2018-02-19T06:49:24.418Z,74.59
2018-02-19T06:51:50.771Z,74.94
2018-02-19T06:54:17.134Z,75.22
2018-02-19T06:56:43.501Z,75.01
2018-02-19T06:59:09.931Z,75.23
2018-02-19T07:01:36.374Z,75.41
2018-02-19T07:04:02.777Z,75.60
2018-02-19T07:06:29.132Z,75.49
2018-02-19T07:08:55.587Z,75.54
2018-02-19T07:11:22.053Z,75.64
2018-02-19T07:13:48.407Z,75.57
2018-02-19T07:16:14.971Z,75.21
2018-02-19T07:18:41.477Z,74.79
2018-02-19T07:21:07.850Z,74.80
2018-02-19T07:23:34.501Z,74.69
2018-02-19T07:26:01.004Z,75.11
2018-02-19T07:28:27.469Z,75.77
2018-02-19T07:30:53.880Z,76.04
2018-02-19T07:33:20.254Z,75.95
2018-02-19T07:35:46.755Z,75.57
2018-02-19T07:38:13.194Z,75.18
2018-02-19T07:40:39.534Z,75.02
2018-02-19T07:43:05.917Z,74.97
2018-02-19T07:45:32.446Z,75.51
2018-02-19T07:47:58.845Z,76.03
2018-02-19T07:50:25.237Z,76.51
2018-02-19T07:52:51.909Z,76.62
2018-02-19T07:55:18.589Z,77.12
2018-02-19T07:57:44.935Z,77.15
2018-02-19T08:00:11.558Z,76.57
2018-02-19T08:02:37.930Z,75.94
2018-02-19T08:05:04.462Z,75.95
2018-02-19T08:07:30.857Z,75.87
2018-02-19T08:09:57.369Z,75.88
2018-02-19T08:12:23.743Z,75.93
2018-02-19T08:14:50.134Z,76.27
2018-02-19T08:17:16.496Z,76.21
2018-02-19T08:19:42.964Z,76.88
2018-02-19T08:22:09.560Z,76.96
2018-02-19T08:24:35.908Z,76.49
2018-02-19T08:27:02.266Z,76.55
2018-02-19T08:29:28.634Z,76.62
2018-02-19T08:31:55.206Z,76.24
2018-02-19T08:34:21.620Z,76.84
2018-02-19T08:36:48.060Z,76.12
2018-02-19T08:39:14.465Z,76.03
2018-02-19T08:41:40.797Z,75.62
2018-02-19T08:44:07.166Z,75.46
2018-02-19T08:46:33.773Z,75.29
2018-02-19T08:49:00.336Z,75.67
2018-02-19T08:51:26.763Z,75.42
2018-02-19T08:53:53.130Z,75.54
2018-02-19T08:56:19.562Z,75.42
2018-02-19T08:58:45.896Z,75.28
2018-02-19T09:01:12.252Z,75.90
2018-02-19T09:03:38.880Z,75.83
2018-02-19T09:06:05.237Z,76.30
2018-02-19T09:08:31.622Z,76.49
2018-02-19T09:10:58.096Z,75.96
2018-02-19T09:13:24.614Z,75.98
2018-02-19T09:15:50.969Z,75.68
2018-02-19T09:18:17.398Z,75.62
2018-02-19T09:20:43.789Z,75.19
2018-02-19T09:23:10.135Z,75.49
2018-02-19T09:25:36.592Z,75.42
2018-02-19T09:28:02.934Z,75.71
2018-02-19T09:30:29.278Z,75.09
2018-02-19T09:32:55.663Z,75.08
2018-02-19T09:35:22.050Z,75.04
2018-02-19T09:37:48.389Z,75.05
2018-02-19T09:40:14.810Z,74.96
2018-02-19T09:42:41.166Z,74.78
2018-02-19T09:45:07.525Z,74.29
2018-02-19T09:47:33.888Z,74.33
2018-02-19T09:50:00.237Z,74.09
2018-02-19T09:52:26.589Z,73.93
2018-02-19T09:54:52.955Z,74.05
2018-02-19T09:57:19.309Z,74.06
2018-02-19T09:59:45.742Z,73.67
2018-02-19T10:02:12.154Z,73.54
2018-02-19T10:04:38.497Z,73.15
2018-02-19T10:07:04.890Z,73.62
2018-02-19T10:09:31.274Z,73.31
2018-02-19T10:11:57.603Z,73.56
2018-02-19T10:14:24.043Z,73.41
2018-02-19T10:16:50.388Z,73.19
2018-02-19T10:19:16.773Z,73.29
2018-02-19T10:21:43.210Z,73.59
2018-02-19T10:24:09.659Z,73.40
2018-02-19T10:26:35.997Z,73.83
2018-02-19T10:29:02.523Z,73.72
2018-02-19T10:31:28.894Z,73.18
2018-02-19T10:33:55.245Z,74.28
2018-02-19T10:36:21.733Z,73.46
2018-02-19T10:38:48.137Z,74.02
2018-02-19T10:41:14.671Z,73.67
2018-02-19T10:43:41.056Z,73.58
2018-02-19T10:46:07.492Z,73.89
2018-02-19T10:48:33.896Z,73.09
2018-02-19T10:51:00.285Z,73.83
2018-02-19T10:53:26.662Z,74.09
2018-02-19T10:55:53.293Z,73.63
2018-02-19T10:58:19.977Z,73.44
2018-02-19T11:00:46.326Z,73.80
2018-02-19T11:03:12.800Z,74.19
2018-02-19T11:05:39.177Z,74.17
2018-02-19T11:08:05.514Z,73.82
2018-02-19T11:10:31.901Z,73.64
2018-02-19T11:12:58.260Z,73.63
2018-02-19T11:15:24.661Z,73.65
2018-02-19T11:17:51.038Z,73.73
2018-02-19T11:20:17.489Z,73.74
2018-02-19T11:22:43.901Z,73.70
2018-02-19T11:25:10.730Z,73.49
2018-02-19T11:27:37.347Z,73.24
2018-02-19T11:30:03.766Z,73.11
2018-02-19T11:32:30.176Z,73.76
2018-02-19T11:34:56.710Z,73.44
2018-02-19T11:37:23.090Z,72.90
2018-02-19T11:39:49.563Z,73.30
2018-02-19T11:42:16.018Z,73.33
2018-02-19T11:44:42.381Z,72.87
2018-02-19T11:47:08.728Z,73.28
2018-02-19T11:49:35.191Z,72.91
2018-02-19T11:52:01.527Z,73.16
2018-02-19T11:54:27.879Z,72.86
2018-02-19T11:56:54.314Z,73.06
2018-02-19T11:59:20.705Z,72.90
2018-02-19T12:01:47.211Z,73.00
2018-02-19T12:04:13.630Z,72.76
2018-02-19T12:06:40.126Z,73.00
2018-02-19T12:09:06.611Z,72.50
2018-02-19T12:11:32.955Z,72.21
2018-02-19T12:13:59.324Z,72.25
2018-02-19T12:16:25.722Z,71.97
2018-02-19T12:18:52.052Z,72.32
2018-02-19T12:21:18.423Z,72.20
2018-02-19T12:23:44.855Z,72.26
2018-02-19T12:26:11.250Z,72.87
2018-02-19T12:28:37.644Z,73.16
2018-02-19T12:31:04.097Z,73.30
2018-02-19T12:33:30.461Z,73.12
2018-02-19T12:35:56.920Z,74.19
2018-02-19T12:38:23.428Z,74.34
2018-02-19T12:40:49.805Z,73.89
2018-02-19T12:43:16.163Z,73.80
2018-02-19T12:45:42.636Z,73.86
2018-02-19T12:48:09.416Z,73.95
2018-02-19T12:50:35.865Z,74.36
2018-02-19T12:53:02.712Z,74.28
2018-02-19T12:55:29.354Z,74.86
2018-02-19T12:57:55.725Z,75.23
2018-02-19T13:00:22.114Z,74.91
2018-02-19T13:02:48.485Z,74.15
2018-02-19T13:05:14.862Z,74.85
2018-02-19T13:07:41.263Z,73.91
2018-02-19T13:10:07.693Z,74.44
2018-02-19T13:12:34.050Z,74.39
2018-02-19T13:15:00.491Z,74.50
2018-02-19T13:17:26.856Z,74.69
2018-02-19T13:19:53.203Z,74.69
2018-02-19T13:22:19.582Z,74.60
2018-02-19T13:24:45.934Z,74.81
2018-02-19T13:27:12.286Z,74.79
2018-02-19T13:29:38.745Z,74.64
2018-02-19T13:32:05.237Z,75.25
2018-02-19T13:34:31.797Z,75.41
2018-02-19T13:36:58.212Z,75.12
2018-02-19T13:39:24.641Z,75.04
2018-02-19T13:41:51.090Z,75.15
2018-02-19T13:44:17.998Z,75.51
2018-02-19T13:46:46.334Z,75.62
2018-02-19T13:49:13.674Z,75.93
2018-02-19T13:51:40.313Z,75.67
2018-02-19T13:54:06.719Z,75.60
2018-02-19T13:56:33.102Z,76.29
2018-02-19T13:58:59.514Z,75.63
2018-02-19T14:01:25.895Z,75.35
2018-02-19T14:03:52.289Z,75.30
2018-02-19T14:06:18.648Z,75.51
2018-02-19T14:08:45.010Z,75.18
2018-02-19T14:11:11.438Z,75.38
2018-02-19T14:13:37.784Z,75.57
2018-02-19T14:16:04.127Z,75.34
2018-02-19T14:18:30.574Z,75.16
2018-02-19T14:20:56.929Z,74.97
2018-02-19T14:23:23.278Z,75.36
2018-02-19T14:25:49.690Z,75.97
2018-02-19T14:28:16.092Z,75.52
2018-02-19T14:30:42.512Z,75.60
2018-02-19T14:33:08.942Z,75.48
2018-02-19T14:35:35.318Z,75.42
2018-02-19T14:38:01.666Z,75.41
2018-02-19T14:40:28.162Z,75.77
2018-02-19T14:42:54.527Z,75.17
2018-02-19T14:45:20.905Z,75.18
2018-02-19T14:47:47.330Z,75.11
2018-02-19T14:50:13.744Z,74.80
2018-02-19T14:52:40.153Z,74.75
2018-02-19T14:55:06.709Z,74.71
2018-02-19T14:57:33.062Z,75.10
2018-02-19T14:59:59.418Z,75.80
2018-02-19T15:02:25.870Z,76.37
2018-02-19T15:04:52.250Z,75.71
2018-02-19T15:07:18.638Z,75.48
2018-02-19T15:09:45.102Z,75.50
2018-02-19T15:12:11.522Z,75.46
2018-02-19T15:14:37.866Z,74.96
2018-02-19T15:17:04.273Z,75.42
2018-02-19T15:19:30.663Z,75.15
2018-02-19T15:21:57.003Z,74.90
2018-02-19T15:24:23.426Z,74.86
2018-02-19T15:26:49.765Z,74.91
2018-02-19T15:29:16.104Z,74.90
2018-02-19T15:31:42.521Z,74.66
2018-02-19T15:34:08.893Z,74.57
2018-02-19T15:36:35.230Z,74.82
2018-02-19T15:39:01.617Z,75.30
2018-02-19T15:41:27.992Z,75.19
2018-02-19T15:43:54.327Z,75.53
2018-02-19T15:46:20.729Z,75.33
2018-02-19T15:48:47.082Z,75.67
2018-02-19T15:51:13.425Z,75.32
2018-02-19T15:53:39.765Z,75.64
2018-02-19T15:56:06.113Z,75.37
2018-02-19T15:58:32.520Z,75.51
2018-02-19T16:00:58.950Z,75.97
2018-02-19T16:03:25.326Z,75.75
2018-02-19T16:05:51.674Z,75.35
2018-02-19T16:08:18.040Z,75.29
2018-02-19T16:10:44.394Z,75.35
2018-02-19T16:13:10.722Z,75.37
2018-02-19T16:15:37.181Z,75.02
2018-02-19T16:18:03.682Z,74.93
2018-02-19T16:20:30.082Z,75.90
2018-02-19T16:22:56.453Z,75.49
2018-02-19T16:25:22.918Z,74.97
2018-02-19T16:27:49.257Z,74.98
2018-02-19T16:30:15.704Z,74.79
2018-02-19T16:32:42.158Z,74.71
2018-02-19T16:35:08.566Z,74.36
2018-02-19T16:37:34.904Z,74.82
2018-02-19T16:40:01.594Z,74.62
2018-02-19T16:42:27.913Z,74.23
2018-02-19T16:44:54.246Z,74.94
2018-02-19T16:47:20.736Z,75.31
2018-02-19T16:49:47.078Z,75.63
2018-02-19T16:52:13.428Z,75.65
2018-02-19T16:54:39.816Z,75.74
2018-02-19T16:57:06.190Z,75.47
2018-02-19T16:59:32.590Z,76.06
2018-02-19T17:01:58.978Z,76.47
2018-02-19T17:04:25.321Z,76.73
2018-02-19T17:06:51.694Z,76.85
2018-02-19T17:09:18.058Z,76.82
2018-02-19T17:11:44.420Z,77.82
2018-02-19T17:14:10.769Z,78.59
2018-02-19T17:16:37.164Z,78.15
2018-02-19T17:19:03.529Z,78.69
2018-02-19T17:21:29.936Z,78.78
2018-02-19T17:23:56.335Z,78.92
2018-02-19T17:26:22.709Z,78.56
2018-02-19T17:28:49.054Z,78.23
2018-02-19T17:31:15.467Z,78.35
2018-02-19T17:33:41.793Z,77.93
2018-02-19T17:36:08.193Z,77.94
2018-02-19T17:38:34.590Z,77.76
2018-02-19T17:41:00.947Z,78.34
2018-02-19T17:43:27.309Z,78.16
2018-02-19T17:45:53.709Z,77.99
2018-02-19T17:48:20.070Z,78.29
2018-02-19T17:50:46.397Z,77.44
2018-02-19T17:53:12.777Z,77.39
2018-02-19T17:55:39.123Z,77.75
2018-02-19T17:58:05.489Z,78.39
2018-02-19T18:00:31.898Z,78.85
2018-02-19T18:02:58.241Z,78.63
2018-02-19T18:05:24.585Z,78.39
2018-02-19T18:07:50.993Z,78.27
2018-02-19T18:10:17.353Z,78.56
2018-02-19T18:12:43.725Z,78.43
2018-02-19T18:15:10.185Z,78.67
2018-02-19T18:17:36.549Z,78.94
2018-02-19T18:20:02.971Z,78.96
2018-02-19T18:22:29.357Z,78.43
2018-02-19T18:24:55.750Z,78.25
2018-02-19T18:27:22.150Z,77.83
2018-02-19T18:29:48.537Z,77.24
2018-02-19T18:32:14.949Z,76.51
2018-02-19T18:34:41.313Z,76.97
2018-02-19T18:37:07.695Z,76.79
2018-02-19T18:39:34.046Z,76.86
2018-02-19T18:42:00.450Z,77.05
2018-02-19T18:44:26.908Z,78.25
2018-02-19T18:46:53.257Z,77.93
2018-02-19T18:49:19.613Z,77.37
2018-02-19T18:51:46.047Z,77.54
2018-02-19T18:54:12.388Z,78.44
2018-02-19T18:56:38.813Z,78.72
2018-02-19T18:59:05.284Z,77.61
2018-02-19T19:01:31.782Z,78.26
2018-02-19T19:03:58.165Z,78.39
2018-02-19T19:06:24.581Z,78.56
2018-02-19T19:09:03.187Z,78.77
2018-02-19T19:11:29.574Z,79.26
2018-02-19T19:13:55.938Z,78.89
2018-02-19T19:16:22.357Z,78.79
2018-02-19T19:18:48.770Z,79.05
2018-02-19T19:21:15.121Z,78.79
2018-02-19T19:23:41.497Z,79.66
2018-02-19T19:26:07.893Z,79.51
2018-02-19T19:28:34.249Z,79.34
2018-02-19T19:31:00.660Z,78.59
2018-02-19T19:33:27.061Z,78.49
2018-02-19T19:35:53.458Z,78.49
2018-02-19T19:38:19.920Z,77.45
2018-02-19T19:40:46.326Z,78.39
2018-02-19T19:43:12.677Z,78.61
2018-02-19T19:45:39.091Z,78.89
2018-02-19T19:48:05.658Z,78.33
2018-02-19T19:50:32.099Z,79.16
2018-02-19T19:52:58.431Z,78.67
2018-02-19T19:55:24.861Z,78.78
2018-02-19T19:57:51.217Z,77.69
2018-02-19T20:00:17.590Z,78.28
2018-02-19T20:02:44.034Z,77.91
2018-02-19T20:05:10.409Z,78.26
2018-02-19T20:07:36.765Z,77.87
2018-02-19T20:10:03.174Z,77.62
2018-02-19T20:12:29.517Z,78.30
2018-02-19T20:14:55.914Z,78.15
2018-02-19T20:17:22.323Z,77.44
2018-02-19T20:19:48.666Z,78.60
2018-02-19T20:22:14.994Z,78.00
2018-02-19T20:24:41.409Z,78.31
2018-02-19T20:27:07.781Z,77.76
2018-02-19T20:29:34.130Z,77.33
2018-02-19T20:32:00.542Z,76.96
2018-02-19T20:34:26.953Z,77.92
2018-02-19T20:36:53.329Z,77.09
2018-02-19T20:39:19.760Z,78.05
2018-02-19T20:41:46.518Z,77.44
2018-02-19T20:44:12.866Z,78.29
2018-02-19T20:46:39.283Z,78.22
2018-02-19T20:49:05.629Z,78.42
2018-02-19T20:51:31.997Z,78.30
2018-02-19T20:53:58.393Z,77.89
2018-02-19T20:56:24.741Z,77.89
2018-02-19T20:58:51.089Z,77.83
2018-02-19T21:01:17.576Z,78.83
2018-02-19T21:03:44.193Z,77.32
2018-02-19T21:06:10.586Z,77.67
2018-02-19T21:08:36.977Z,78.89
2018-02-19T21:11:03.361Z,78.82
2018-02-19T21:13:29.781Z,78.53
2018-02-19T21:15:56.180Z,77.79
2018-02-19T21:18:22.551Z,78.72
2018-02-19T21:20:49.003Z,77.58
2018-02-19T21:23:15.434Z,78.35
2018-02-19T21:25:41.777Z,77.54
2018-02-19T21:28:08.123Z,78.15
2018-02-19T21:30:34.555Z,78.04
2018-02-19T21:33:00.910Z,77.98
2018-02-19T21:35:27.249Z,78.47
2018-02-19T21:37:53.693Z,78.59
2018-02-19T21:40:20.034Z,78.25
2018-02-19T21:42:46.389Z,78.30
2018-02-19T21:45:12.806Z,77.43
2018-02-19T21:47:39.157Z,78.51
2018-02-19T21:50:05.705Z,77.85
2018-02-19T21:52:32.106Z,78.01
2018-02-19T21:54:58.510Z,77.31
2018-02-19T21:57:24.861Z,77.16
2018-02-19T21:59:51.252Z,78.22
2018-02-19T22:02:17.579Z,77.98
2018-02-19T22:04:43.927Z,78.22
2018-02-19T22:07:10.481Z,77.25
2018-02-19T22:09:36.829Z,76.94
2018-02-19T22:12:03.204Z,78.03
2018-02-19T22:14:29.566Z,77.58
2018-02-19T22:16:55.965Z,78.06
2018-02-19T22:19:22.294Z,77.78
2018-02-19T22:21:48.626Z,78.93
2018-02-19T22:24:14.985Z,78.20
2018-02-19T22:26:41.338Z,77.88
2018-02-19T22:29:07.697Z,78.32
2018-02-19T22:31:34.102Z,77.82
2018-02-19T22:34:00.469Z,76.82
2018-02-19T22:36:26.825Z,77.46
2018-02-19T22:38:53.267Z,77.14
2018-02-19T22:41:19.621Z,76.72
2018-02-19T22:43:45.958Z,76.65
2018-02-19T22:46:12.346Z,76.86
2018-02-19T22:48:38.673Z,76.30
2018-02-19T22:51:05.053Z,77.08
2018-02-19T22:53:31.445Z,77.53
2018-02-19T22:55:57.782Z,77.03
2018-02-19T22:58:24.124Z,78.43
2018-02-19T23:00:50.468Z,76.60
2018-02-19T23:03:16.865Z,77.26
2018-02-19T23:05:43.259Z,77.56
2018-02-19T23:08:09.599Z,78.08
2018-02-19T23:10:36.026Z,76.60
2018-02-19T23:13:02.352Z,76.75
2018-02-19T23:15:28.722Z,77.64
2018-02-19T23:17:55.098Z,77.15
2018-02-19T23:20:21.443Z,77.71
2018-02-19T23:22:47.819Z,77.04
2018-02-19T23:25:14.157Z,77.02
2018-02-19T23:27:40.485Z,77.99
2018-02-19T23:30:06.875Z,76.92
2018-02-19T23:32:33.250Z,76.63
2018-02-19T23:35:02.440Z,76.30
2018-02-19T23:37:26.008Z,76.75
2018-02-19T23:39:52.342Z,77.25
2018-02-19T23:42:18.677Z,76.80
2018-02-19T23:44:45.073Z,77.78
2018-02-19T23:47:11.413Z,77.65
2018-02-19T23:49:37.745Z,77.43
2018-02-19T23:52:04.120Z,77.62
2018-02-19T23:54:34.489Z,77.49
2018-02-19T23:57:00.860Z,78.80
2018-02-19T23:59:27.245Z,77.39
